createdAt,value
2019-04-23T00:02:53.512Z,3.13
2019-04-23T00:05:30.487Z,3.53
2019-04-23T00:12:52.944Z,2.17
2019-04-23T00:17:47.857Z,6.90
2019-04-23T00:20:22.083Z,4.87
2019-04-23T00:22:59.896Z,2.20
2019-04-23T00:25:43.867Z,4.30
2019-04-23T00:28:10.116Z,1.60
2019-04-23T00:30:36.624Z,2.47
2019-04-23T00:33:08.637Z,2.03
2019-04-23T00:35:35.531Z,3.37
2019-04-23T00:38:06.071Z,3.43
2019-04-23T00:40:35.425Z,4.93
2019-04-23T00:43:03.442Z,3.67
2019-04-23T00:45:35.909Z,2.53
2019-04-23T00:47:54.780Z,6.70
2019-04-23T00:50:41.325Z,4.40
2019-04-23T00:53:01.830Z,2.40
2019-04-23T00:55:31.263Z,3.27
2019-04-23T00:58:06.243Z,2.20
2019-04-23T01:00:34.154Z,2.43
2019-04-23T01:03:01.910Z,4.80
2019-04-23T01:05:31.020Z,5.43
2019-04-23T01:08:00.960Z,3.97
2019-04-23T01:10:34.895Z,3.37
2019-04-23T01:13:09.205Z,5.47
2019-04-23T01:18:10.902Z,2.33
2019-04-23T01:20:36.865Z,3.40
2019-04-23T01:22:48.767Z,3.93
2019-04-23T01:25:34.366Z,4.03
2019-04-23T01:31:05.280Z,3.40
2019-04-23T01:33:35.537Z,3.90
2019-04-23T01:36:14.028Z,5.07
2019-04-23T01:38:36.543Z,3.33
2019-04-23T01:40:53.721Z,5.17
2019-04-23T01:43:32.292Z,2.70
2019-04-23T01:46:01.338Z,7.07
2019-04-23T01:48:31.238Z,4.83
2019-04-23T01:51:10.801Z,3.23
2019-04-23T01:53:45.197Z,8.37
2019-04-23T01:56:02.511Z,6.20
2019-04-23T02:00:58.944Z,3.97
2019-04-23T02:03:26.544Z,2.63
2019-04-23T02:06:00.312Z,3.60
2019-04-23T02:08:25.980Z,3.60
2019-04-23T02:11:02.836Z,2.73
2019-04-23T02:13:31.272Z,2.73
2019-04-23T02:15:58.241Z,3.67
2019-04-23T02:18:45.531Z,8.53
2019-04-23T02:21:10.317Z,8.37
2019-04-23T02:23:42.417Z,4.47
2019-04-23T02:26:25.731Z,6.00
2019-04-23T02:28:54.554Z,5.87
2019-04-23T02:31:35.729Z,5.97
2019-04-23T02:33:49.561Z,4.93
2019-04-23T02:36:11.348Z,3.10
2019-04-23T02:38:50.464Z,6.23
2019-04-23T02:41:20.243Z,3.87
2019-04-23T02:43:48.964Z,3.73
2019-04-23T02:46:09.758Z,5.47
2019-04-23T02:48:54.601Z,3.33
2019-04-23T02:51:17.564Z,2.67
2019-04-23T02:56:44.534Z,6.13
2019-04-23T02:58:57.688Z,5.80
2019-04-23T03:06:14.899Z,6.20
2019-04-23T03:11:32.041Z,2.93
2019-04-23T03:16:33.055Z,4.23
2019-04-23T03:21:31.392Z,5.37
2019-04-23T03:24:11.251Z,5.30
2019-04-23T03:26:55.705Z,4.43
2019-04-23T03:29:25.735Z,4.47
2019-04-23T03:37:09.347Z,5.13
2019-04-23T03:39:03.218Z,4.90
2019-04-23T03:44:14.125Z,5.63
2019-04-23T03:46:36.671Z,4.90
2019-04-23T03:49:07.129Z,7.00
2019-04-23T03:51:43.380Z,5.07
2019-04-23T03:54:26.011Z,4.30
2019-04-23T03:56:56.239Z,5.83
2019-04-23T03:59:20.354Z,4.47
2019-04-23T04:01:47.696Z,4.03
2019-04-23T04:09:33.145Z,10.77
2019-04-23T04:11:57.106Z,4.30
2019-04-23T04:16:42.864Z,6.70
2019-04-23T04:19:32.331Z,5.23
2019-04-23T04:21:39.888Z,3.97
2019-04-23T04:29:11.700Z,6.27
2019-04-23T04:36:45.846Z,12.40
2019-04-23T04:39:12.961Z,11.27
2019-04-23T04:41:40.662Z,5.50
2019-04-23T04:49:11.933Z,5.87
2019-04-23T04:51:49.323Z,6.67
2019-04-23T04:56:45.039Z,5.97
2019-04-23T04:59:08.611Z,6.37
2019-04-23T05:01:36.745Z,6.10
2019-04-23T05:04:09.611Z,4.90
2019-04-23T05:06:48.344Z,5.23
2019-04-23T05:09:10.875Z,6.37
2019-04-23T05:11:46.113Z,6.93
2019-04-23T05:14:25.870Z,4.83
2019-04-23T05:16:37.056Z,7.90
2019-04-23T05:19:19.815Z,5.93
2019-04-23T05:21:46.900Z,6.83
2019-04-23T05:24:08.949Z,6.43
2019-04-23T05:26:27.652Z,4.70
2019-04-23T05:29:09.708Z,4.83
2019-04-23T05:31:27.638Z,4.70
2019-04-23T05:34:04.550Z,5.20
2019-04-23T05:36:35.930Z,5.03
2019-04-23T05:39:01.605Z,5.13
2019-04-23T05:46:32.797Z,4.27
2019-04-23T05:49:09.404Z,5.33
2019-04-23T05:54:19.103Z,6.80
2019-04-23T05:56:32.398Z,7.40
2019-04-23T05:59:08.784Z,6.00
2019-04-23T06:01:49.282Z,5.50
2019-04-23T06:04:14.067Z,6.70
2019-04-23T06:09:07.848Z,7.33
2019-04-23T06:11:49.079Z,7.20
2019-04-23T06:14:06.429Z,6.27
2019-04-23T06:16:36.164Z,7.40
2019-04-23T06:19:02.756Z,4.20
2019-04-23T06:21:44.325Z,6.10
2019-04-23T06:24:09.832Z,10.17
2019-04-23T06:29:06.747Z,5.70
2019-04-23T06:31:38.117Z,8.33
2019-04-23T06:34:10.861Z,6.13
2019-04-23T06:36:32.658Z,5.37
2019-04-23T06:39:02.311Z,4.83
2019-04-23T06:41:41.943Z,6.90
2019-04-23T06:44:14.493Z,5.10
2019-04-23T06:46:46.036Z,5.07
2019-04-23T06:49:00.870Z,4.77
2019-04-23T06:51:46.707Z,5.80
2019-04-23T06:54:13.442Z,5.83
2019-04-23T06:56:52.996Z,4.27
2019-04-23T06:59:11.997Z,5.77
2019-04-23T07:01:47.849Z,10.70
2019-04-23T07:04:15.025Z,4.57
2019-04-23T07:07:19.540Z,5.20
2019-04-23T07:09:12.153Z,4.63
2019-04-23T07:11:47.890Z,7.70
2019-04-23T07:14:21.910Z,6.60
2019-04-23T07:16:38.559Z,5.97
2019-04-23T07:19:09.630Z,6.67
2019-04-23T07:21:39.387Z,6.23
2019-04-23T07:26:41.840Z,5.60
2019-04-23T07:29:15.686Z,6.67
2019-04-23T07:31:57.468Z,4.30
2019-04-23T07:34:05.468Z,5.80
2019-04-23T07:44:40.261Z,4.70
2019-04-23T07:47:16.284Z,5.77
2019-04-23T07:49:43.391Z,6.13
2019-04-23T07:52:16.410Z,8.57
2019-04-23T07:54:42.457Z,9.67
2019-04-23T07:57:13.455Z,4.57
2019-04-23T07:59:45.442Z,7.47
2019-04-23T08:02:14.464Z,6.10
2019-04-23T08:04:44.636Z,4.73
2019-04-23T08:07:07.062Z,7.37
2019-04-23T08:09:48.063Z,8.23
2019-04-23T08:12:25.583Z,4.77
2019-04-23T08:14:40.840Z,4.97
2019-04-23T08:17:12.546Z,6.00
2019-04-23T08:19:49.671Z,4.87
2019-04-23T08:22:24.419Z,7.17
2019-04-23T08:24:50.629Z,7.00
2019-04-23T08:27:31.103Z,12.10
2019-04-23T08:30:00.171Z,5.50
2019-04-23T08:32:21.703Z,6.83
2019-04-23T08:35:01.230Z,6.20
2019-04-23T08:40:06.372Z,4.87
2019-04-23T08:42:45.361Z,6.57
2019-04-23T08:45:24.227Z,5.70
2019-04-23T08:50:40.058Z,9.07
2019-04-23T08:53:24.758Z,6.53
2019-04-23T08:55:46.895Z,6.20
2019-04-23T08:58:17.105Z,6.67
2019-04-23T09:00:49.920Z,6.40
2019-04-23T09:03:20.292Z,10.77
2019-04-23T09:05:50.589Z,4.57
2019-04-23T09:15:45.481Z,6.97
2019-04-23T09:18:14.422Z,9.93
2019-04-23T09:20:37.523Z,4.77
2019-04-23T09:23:12.870Z,8.47
2019-04-23T09:25:47.763Z,4.87
2019-04-23T09:28:22.613Z,5.57
2019-04-23T09:30:49.366Z,7.93
2019-04-23T09:33:32.466Z,8.50
2019-04-23T09:36:16.104Z,8.13
2019-04-23T09:39:10.576Z,7.00
2019-04-23T09:41:36.217Z,7.07
2019-04-23T09:44:39.177Z,5.13
2019-04-23T09:46:48.308Z,7.87
2019-04-23T09:49:20.820Z,6.63
2019-04-23T09:54:16.308Z,5.53
2019-04-23T09:59:26.860Z,3.30
2019-04-23T10:01:29.136Z,4.30
2019-04-23T10:04:00.186Z,5.37
2019-04-23T10:06:24.976Z,4.97
2019-04-23T10:08:53.604Z,6.57
2019-04-23T10:11:19.998Z,7.50
2019-04-23T10:13:48.440Z,5.30
2019-04-23T10:16:19.408Z,5.57
2019-04-23T10:18:47.028Z,5.30
2019-04-23T10:21:15.627Z,8.53
2019-04-23T10:23:45.116Z,6.20
2019-04-23T10:26:14.260Z,10.10
2019-04-23T10:28:49.889Z,6.00
2019-04-23T10:31:18.695Z,6.63
2019-04-23T10:33:48.155Z,5.33
2019-04-23T10:36:21.101Z,7.40
2019-04-23T10:38:54.042Z,8.13
2019-04-23T10:41:17.879Z,5.87
2019-04-23T10:43:50.099Z,8.47
2019-04-23T10:46:43.340Z,6.57
2019-04-23T10:49:42.472Z,6.97
2019-04-23T10:52:07.039Z,8.03
2019-04-23T10:54:36.379Z,6.87
2019-04-23T10:56:59.741Z,7.97
2019-04-23T11:04:54.129Z,6.90
2019-04-23T11:09:53.000Z,5.57
2019-04-23T11:12:24.304Z,6.37
2019-04-23T11:14:52.760Z,5.77
2019-04-23T11:17:21.531Z,7.63
2019-04-23T11:19:56.456Z,7.50
2019-04-23T11:22:42.659Z,8.77
2019-04-23T11:27:25.960Z,5.50
2019-04-23T11:29:57.456Z,9.93
2019-04-23T11:35:06.684Z,5.83
2019-04-23T11:37:28.758Z,7.03
2019-04-23T11:39:45.795Z,5.67
2019-04-23T11:44:45.853Z,6.80
2019-04-23T11:47:42.404Z,8.43
2019-04-23T11:52:21.323Z,4.37
2019-04-23T11:54:46.819Z,8.23
2019-04-23T11:57:32.462Z,7.33
2019-04-23T11:59:44.215Z,5.17
2019-04-23T12:02:29.686Z,5.23
2019-04-23T12:05:00.936Z,3.57
2019-04-23T12:10:07.547Z,6.00
2019-04-23T12:12:29.379Z,6.27
2019-04-23T12:15:19.532Z,8.60
2019-04-23T12:17:49.049Z,8.67
2019-04-23T12:20:03.349Z,11.67
2019-04-23T12:22:44.595Z,6.57
2019-04-23T12:30:01.541Z,5.57
2019-04-23T12:35:03.681Z,8.83
2019-04-23T12:38:04.158Z,4.87
2019-04-23T12:40:23.536Z,4.57
2019-04-23T12:42:57.068Z,6.80
2019-04-23T12:45:29.109Z,6.63
2019-04-23T12:47:58.209Z,6.30
2019-04-23T12:52:51.233Z,10.40
2019-04-23T12:55:21.607Z,5.80
2019-04-23T12:57:47.224Z,6.93
2019-04-23T13:00:23.227Z,10.80
2019-04-23T13:02:48.650Z,5.43
2019-04-23T13:05:14.554Z,7.97
2019-04-23T13:07:55.552Z,8.90
2019-04-23T13:10:27.356Z,11.67
2019-04-23T13:12:50.341Z,8.73
2019-04-23T13:15:18.780Z,8.07
2019-04-23T13:17:49.984Z,7.80
2019-04-23T13:25:39.843Z,6.13
2019-04-23T13:28:06.607Z,7.47
2019-04-23T13:38:22.449Z,7.80
2019-04-23T13:40:50.531Z,11.20
2019-04-23T13:43:13.947Z,6.07
2019-04-23T13:45:59.294Z,6.70
2019-04-23T13:48:10.791Z,9.73
2019-04-23T13:50:54.679Z,7.73
2019-04-23T13:53:20.997Z,9.33
2019-04-23T13:55:34.888Z,9.70
2019-04-23T14:01:00.681Z,13.60
2019-04-23T14:03:11.202Z,12.53
2019-04-23T14:05:41.179Z,10.10
2019-04-23T14:08:41.659Z,10.83
2019-04-23T14:10:44.878Z,10.83
2019-04-23T14:18:43.590Z,6.80
2019-04-23T14:20:43.430Z,6.63
2019-04-23T14:23:27.635Z,8.57
2019-04-23T14:26:00.023Z,16.30
2019-04-23T14:30:53.829Z,8.20
2019-04-23T14:33:17.671Z,13.17
2019-04-23T14:38:22.314Z,8.87
2019-04-23T14:43:14.534Z,6.17
2019-04-23T14:46:13.729Z,6.87
2019-04-23T14:48:28.745Z,8.07
2019-04-23T14:50:54.744Z,7.53
2019-04-23T14:53:18.391Z,9.47
2019-04-23T14:55:57.998Z,8.10
2019-04-23T14:58:36.055Z,5.97
2019-04-23T15:01:16.188Z,9.60
2019-04-23T15:03:32.409Z,10.03
2019-04-23T15:06:12.567Z,12.17
2019-04-23T15:08:40.320Z,8.57
2019-04-23T15:11:11.538Z,8.00
2019-04-23T15:13:27.540Z,7.90
2019-04-23T15:16:08.066Z,11.17
2019-04-23T15:18:53.750Z,11.53
2019-04-23T15:24:00.184Z,14.87
2019-04-23T15:28:32.713Z,7.87
2019-04-23T15:34:00.711Z,8.33
2019-04-23T15:36:38.881Z,11.13
2019-04-23T15:41:31.972Z,8.07
2019-04-23T15:44:00.491Z,8.93
2019-04-23T15:46:30.656Z,10.97
2019-04-23T15:49:05.648Z,6.30
2019-04-23T15:51:30.473Z,4.93
2019-04-23T15:53:48.564Z,9.20
2019-04-23T15:56:26.894Z,6.30
2019-04-23T15:59:04.317Z,9.57
2019-04-23T16:01:29.000Z,16.53
2019-04-23T16:03:24.328Z,7.57
2019-04-23T16:05:53.037Z,10.73
2019-04-23T16:08:59.387Z,19.30
2019-04-23T16:11:32.830Z,8.70
2019-04-23T16:14:11.321Z,7.00
2019-04-23T16:16:28.594Z,8.60
2019-04-23T16:19:04.006Z,9.40
2019-04-23T16:21:29.205Z,10.47
2019-04-23T16:24:01.197Z,13.10
2019-04-23T16:26:30.147Z,10.53
2019-04-23T16:29:22.656Z,11.20
2019-04-23T16:36:25.219Z,8.50
2019-04-23T16:39:04.296Z,11.93
2019-04-23T16:41:27.832Z,12.03
2019-04-23T16:44:00.003Z,11.53
2019-04-23T16:49:12.766Z,11.13
2019-04-23T16:51:25.152Z,8.70
2019-04-23T16:53:56.320Z,6.57
2019-04-23T16:56:26.088Z,11.23
2019-04-23T16:59:00.125Z,10.50
2019-04-23T17:01:34.698Z,11.47
2019-04-23T17:04:00.986Z,9.70
2019-04-23T17:06:25.906Z,8.90
2019-04-23T17:08:57.166Z,8.53
2019-04-23T17:11:24.950Z,10.83
2019-04-23T17:13:54.992Z,10.93
2019-04-23T17:16:25.137Z,9.27
2019-04-23T17:18:54.842Z,9.47
2019-04-23T17:21:23.773Z,12.57
2019-04-23T17:24:09.503Z,9.63
2019-04-23T17:26:25.497Z,9.23
2019-04-23T17:34:00.808Z,7.70
2019-04-23T17:41:38.691Z,13.70
2019-04-23T17:44:24.086Z,9.83
2019-04-23T17:46:39.440Z,9.57
2019-04-23T17:49:10.912Z,11.10
2019-04-23T17:51:46.905Z,11.13
2019-04-23T17:54:10.763Z,10.13
2019-04-23T17:56:45.780Z,10.40
2019-04-23T18:01:45.216Z,8.37
2019-04-23T18:04:31.345Z,17.23
2019-04-23T18:06:41.170Z,9.20
2019-04-23T18:09:16.743Z,6.97
2019-04-23T18:11:35.763Z,7.17
2019-04-23T18:14:08.187Z,10.50
2019-04-23T18:22:02.629Z,13.37
2019-04-23T18:24:22.685Z,12.60
2019-04-23T18:29:31.562Z,11.60
2019-04-23T18:32:06.279Z,12.83
2019-04-23T18:34:36.676Z,11.83
2019-04-23T18:37:08.951Z,13.20
2019-04-23T18:39:29.685Z,14.90
2019-04-23T18:42:11.585Z,10.23
2019-04-23T18:44:40.416Z,10.37
2019-04-23T18:47:00.400Z,11.80
2019-04-23T18:49:35.466Z,10.33
2019-04-23T18:52:04.987Z,9.63
2019-04-23T18:54:34.433Z,10.00
2019-04-23T18:57:10.055Z,8.07
2019-04-23T18:59:37.206Z,10.87
2019-04-23T19:02:08.039Z,10.20
2019-04-23T19:05:03.644Z,8.50
2019-04-23T19:07:57.128Z,9.43
2019-04-23T19:13:02.055Z,12.10
2019-04-23T19:17:50.536Z,12.27
2019-04-23T19:20:46.453Z,12.60
2019-04-23T19:23:04.755Z,17.23
2019-04-23T19:25:28.168Z,22.77
2019-04-23T19:28:09.139Z,10.70
2019-04-23T19:30:43.028Z,12.90
2019-04-23T19:33:05.558Z,16.23
2019-04-23T19:35:59.783Z,13.03
2019-04-23T19:40:46.777Z,14.03
2019-04-23T19:43:31.345Z,11.80
2019-04-23T19:45:53.043Z,13.60
2019-04-23T19:48:16.030Z,11.00
2019-04-23T19:51:44.306Z,18.63
2019-04-23T19:55:49.482Z,13.13
2019-04-23T19:58:17.920Z,12.93
2019-04-23T20:00:58.240Z,17.13
2019-04-23T20:03:22.604Z,15.13
2019-04-23T20:05:41.478Z,14.77
2019-04-23T20:08:16.770Z,13.17
2019-04-23T20:10:39.219Z,17.17
2019-04-23T20:13:04.930Z,13.40
2019-04-23T20:15:53.564Z,14.40
2019-04-23T20:17:59.267Z,10.90
2019-04-23T20:20:48.047Z,8.60
2019-04-23T20:23:13.692Z,11.73
2019-04-23T20:26:03.268Z,11.57
2019-04-23T20:28:33.801Z,16.77
2019-04-23T20:31:04.115Z,16.73
2019-04-23T20:34:07.700Z,11.43
2019-04-23T20:36:10.667Z,12.37
2019-04-23T20:38:39.998Z,10.57
2019-04-23T20:41:16.934Z,11.90
2019-04-23T20:43:47.215Z,12.53
2019-04-23T20:48:41.016Z,7.30
2019-04-23T20:51:08.605Z,8.10
2019-04-23T20:53:40.365Z,14.03
2019-04-23T20:56:08.499Z,15.63
2019-04-23T20:58:39.486Z,12.80
2019-04-23T21:03:47.279Z,6.70
2019-04-23T21:06:10.219Z,8.93
2019-04-23T21:11:08.693Z,7.60
2019-04-23T21:21:13.266Z,8.37
2019-04-23T21:23:44.056Z,10.23
2019-04-23T21:26:01.626Z,10.67
2019-04-23T21:33:50.795Z,9.47
2019-04-23T21:36:25.636Z,8.93
2019-04-23T21:41:49.986Z,9.00
2019-04-23T21:46:49.537Z,9.80
2019-04-23T21:49:25.138Z,10.90
2019-04-23T21:51:56.474Z,13.53
2019-04-23T21:54:14.941Z,11.10
2019-04-23T21:56:37.186Z,10.53
2019-04-23T22:06:47.786Z,9.90
2019-04-23T22:09:16.149Z,12.00
2019-04-23T22:14:16.979Z,11.57
2019-04-23T22:16:41.010Z,11.23
2019-04-23T22:21:43.050Z,10.23
2019-04-23T22:24:10.328Z,7.00
2019-04-23T22:31:44.034Z,15.17
2019-04-23T22:34:09.237Z,10.90
2019-04-23T22:36:39.231Z,9.87
2019-04-23T22:39:03.058Z,7.03
2019-04-23T22:46:50.182Z,10.77
2019-04-23T22:51:55.321Z,8.73
2019-04-23T22:54:14.126Z,11.70
2019-04-23T22:56:50.131Z,7.10
2019-04-23T22:59:28.134Z,9.27
2019-04-23T23:06:57.298Z,10.07
2019-04-23T23:09:40.647Z,8.27
2019-04-23T23:11:50.512Z,8.43
2019-04-23T23:14:23.814Z,9.33
2019-04-23T23:16:45.342Z,7.97
2019-04-23T23:22:01.925Z,10.87
2019-04-23T23:24:15.305Z,7.03
2019-04-23T23:26:51.838Z,7.90
2019-04-23T23:29:13.543Z,8.73
2019-04-23T23:31:55.889Z,6.13
2019-04-23T23:36:48.098Z,8.73
2019-04-23T23:39:29.236Z,9.97
2019-04-23T23:41:49.016Z,7.30
2019-04-23T23:44:29.877Z,8.60
2019-04-23T23:47:04.414Z,15.93
2019-04-23T23:49:14.140Z,10.43
2019-04-23T23:54:17.667Z,5.43
2019-04-23T23:56:38.844Z,5.77
2019-04-23T23:59:12.185Z,8.53
